Time;durP1;ratioP1;P1;durP2;ratioP2;P2;SDS_P1;SDS_P2;PMS_P1;PMS_P2;Temp;Humidity;BMP_temperature;BMP_pressure;BME280_temperature;BME280_humidity;BME280_pressure;Samples;Min_cycle;Max_cycle;Signal;HPM_P1;HPM_P2
2021/08/21 00:01:49;;;;;;;6.90;2.75;;;15.00;99.90;;;;;;5044816;28;20087;-74
2021/08/21 00:04:15;;;;;;;11.35;2.92;;;15.00;99.90;;;;;;5044746;28;20025;-74
2021/08/21 00:06:44;;;;;;;5.85;2.63;;;15.00;99.90;;;;;;5044608;28;20029;-74
2021/08/21 00:09:12;;;;;;;4.93;2.45;;;15.00;99.90;;;;;;5042802;28;20037;-75
2021/08/21 00:11:37;;;;;;;3.13;1.90;;;15.00;99.90;;;;;;5042990;28;20057;-74
2021/08/21 00:14:03;;;;;;;9.15;2.85;;;15.00;99.90;;;;;;5042902;28;20026;-75
2021/08/21 00:16:31;;;;;;;5.82;2.25;;;15.00;99.90;;;;;;5059856;28;20031;-75
2021/08/21 00:18:57;;;;;;;6.13;2.95;;;15.10;99.90;;;;;;5058142;28;20390;-74
2021/08/21 00:21:23;;;;;;;6.18;2.63;;;15.00;99.90;;;;;;5064391;28;20060;-75
2021/08/21 00:23:52;;;;;;;5.97;2.78;;;15.00;99.90;;;;;;5064155;28;20036;-75
2021/08/21 00:26:18;;;;;;;6.78;3.22;;;15.00;99.90;;;;;;5064570;28;20553;-75
2021/08/21 00:28:43;;;;;;;6.47;2.88;;;15.20;99.90;;;;;;5079694;28;20436;-75
2021/08/21 00:31:09;;;;;;;7.22;3.90;;;15.00;99.90;;;;;;5062842;28;20128;-76
2021/08/21 00:33:35;;;;;;;5.30;3.53;;;15.00;99.90;;;;;;5064051;28;20041;-73
2021/08/21 00:36:00;;;;;;;9.65;3.25;;;15.00;99.90;;;;;;5062972;28;20270;-74
2021/08/21 00:38:29;;;;;;;11.05;3.85;;;15.00;99.90;;;;;;5063011;28;20029;-75
2021/08/21 00:40:56;;;;;;;8.65;3.22;;;15.00;99.90;;;;;;5064064;28;20037;-76
2021/08/21 00:43:22;;;;;;;12.27;4.30;;;14.90;99.90;;;;;;5064305;28;20072;-75
2021/08/21 00:45:51;;;;;;;8.23;3.58;;;14.90;99.90;;;;;;5064388;28;20020;-74
2021/08/21 00:48:16;;;;;;;12.32;4.45;;;14.90;99.90;;;;;;5063913;28;20116;-74
2021/08/21 00:50:42;;;;;;;8.75;4.15;;;14.90;99.90;;;;;;5063701;28;20037;-74
2021/08/21 00:53:08;;;;;;;16.63;4.68;;;14.90;99.90;;;;;;5064164;28;20029;-76
2021/08/21 00:55:33;;;;;;;15.18;4.75;;;14.90;99.90;;;;;;5079392;28;20028;-74
2021/08/21 00:57:59;;;;;;;12.48;4.47;;;14.90;99.90;;;;;;5063807;28;20033;-75
2021/08/21 01:00:25;;;;;;;9.13;4.68;;;14.90;99.90;;;;;;5050200;28;20071;-74
2021/08/21 01:02:56;;;;;;;6.40;3.45;;;14.90;99.90;;;;;;5044340;28;20041;-75
2021/08/21 01:05:23;;;;;;;18.15;4.63;;;14.90;99.90;;;;;;5046324;28;20036;-74
2021/08/21 01:07:50;;;;;;;8.35;4.07;;;14.90;99.90;;;;;;5048180;28;20049;-76
2021/08/21 01:10:18;;;;;;;6.97;3.38;;;14.90;99.90;;;;;;5047912;28;20037;-73
2021/08/21 01:12:47;;;;;;;8.48;4.55;;;14.90;99.90;;;;;;5047814;28;20049;-74
2021/08/21 01:15:13;;;;;;;7.25;3.90;;;14.90;99.90;;;;;;5046097;28;20041;-73
2021/08/21 01:17:38;;;;;;;9.05;4.35;;;14.90;99.90;;;;;;5047778;28;20049;-74
2021/08/21 01:20:05;;;;;;;11.48;5.03;;;14.90;99.90;;;;;;5047514;28;20104;-76
2021/08/21 01:22:31;;;;;;;8.65;4.53;;;14.90;99.90;;;;;;5047236;28;20026;-74
2021/08/21 01:24:59;;;;;;;9.15;4.35;;;14.90;99.90;;;;;;5047565;28;20021;-74
2021/08/21 01:27:33;;;;;;;10.68;4.60;;;14.90;99.90;;;;;;5062896;28;20025;-75
2021/08/21 01:29:59;;;;;;;11.20;5.30;;;14.80;99.90;;;;;;5047524;28;20055;-75
2021/08/21 01:32:27;;;;;;;15.93;4.28;;;14.80;99.90;;;;;;5047758;28;20028;-74
2021/08/21 01:34:56;;;;;;;13.10;5.55;;;14.80;99.90;;;;;;5047654;28;20123;-74
2021/08/21 01:37:24;;;;;;;9.20;4.22;;;14.90;99.90;;;;;;5047511;28;20048;-75
2021/08/21 01:39:52;;;;;;;12.25;5.25;;;14.80;99.90;;;;;;5047327;28;20045;-74
2021/08/21 01:42:22;;;;;;;10.23;4.53;;;14.90;99.90;;;;;;5062136;28;20097;-73
2021/08/21 01:44:50;;;;;;;12.93;5.53;;;14.70;99.90;;;;;;5047366;28;20112;-74
2021/08/21 01:47:16;;;;;;;13.05;5.05;;;14.70;99.90;;;;;;5047250;28;20025;-73
2021/08/21 01:49:42;;;;;;;13.95;5.32;;;14.70;99.90;;;;;;5046966;28;20091;-73
2021/08/21 01:52:10;;;;;;;14.43;5.25;;;14.70;99.90;;;;;;5046916;28;20421;-73
2021/08/21 01:54:36;;;;;;;13.30;5.15;;;14.70;99.90;;;;;;5046983;28;20024;-72
2021/08/21 01:57:05;;;;;;;7.10;3.53;;;14.70;99.90;;;;;;5045715;28;20044;-72
2021/08/21 01:59:39;;;;;;;8.25;3.47;;;14.70;99.90;;;;;;5046435;28;20034;-74
2021/08/21 02:02:06;;;;;;;7.80;3.88;;;14.70;99.90;;;;;;5046654;28;20021;-73
2021/08/21 02:04:32;;;;;;;10.30;3.42;;;14.50;99.90;;;;;;5046878;28;20037;-74
2021/08/21 02:06:59;;;;;;;7.70;3.65;;;14.50;99.90;;;;;;5046411;28;20025;-74
2021/08/21 02:09:29;;;;;;;5.90;3.35;;;14.50;99.90;;;;;;5046532;28;20544;-74
2021/08/21 02:11:57;;;;;;;5.07;3.10;;;14.50;99.90;;;;;;5046556;28;20057;-73
2021/08/21 02:14:24;;;;;;;8.23;3.15;;;14.50;99.90;;;;;;5046587;28;20497;-74
2021/08/21 02:16:56;;;;;;;6.45;3.30;;;14.50;99.90;;;;;;5046305;28;20049;-74
2021/08/21 02:19:23;;;;;;;8.18;3.20;;;14.40;99.90;;;;;;5046736;28;20524;-74
2021/08/21 02:21:51;;;;;;;8.30;3.63;;;14.50;99.90;;;;;;5046710;28;20482;-73
2021/08/21 02:24:29;;;;;;;7.45;3.60;;;14.40;99.90;;;;;;5046624;28;20092;-73
2021/08/21 02:26:58;;;;;;;11.23;3.85;;;14.40;99.90;;;;;;5046854;28;20048;-74
2021/08/21 02:29:26;;;;;;;12.15;3.97;;;14.50;99.90;;;;;;5046155;28;20458;-74
2021/08/21 02:31:55;;;;;;;10.25;4.15;;;14.40;99.90;;;;;;5046505;28;20081;-74
2021/08/21 02:34:26;;;;;;;9.40;3.80;;;14.40;99.90;;;;;;5044981;28;20055;-74
2021/08/21 02:36:52;;;;;;;11.88;4.93;;;14.40;99.90;;;;;;5046368;28;20048;-74
2021/08/21 02:39:17;;;;;;;9.48;4.35;;;14.40;99.90;;;;;;5046102;28;20071;-73
2021/08/21 02:41:43;;;;;;;11.07;4.80;;;14.40;99.90;;;;;;5045873;28;20029;-73
2021/08/21 02:44:09;;;;;;;8.75;3.92;;;14.50;99.90;;;;;;5045949;28;20077;-73
2021/08/21 02:46:34;;;;;;;13.52;4.95;;;14.40;99.90;;;;;;5061245;28;20122;-73
2021/08/21 02:49:00;;;;;;;11.07;5.18;;;14.40;99.90;;;;;;5061150;28;20030;-74
2021/08/21 02:51:26;;;;;;;8.10;4.25;;;14.40;99.90;;;;;;5045833;28;20029;-74
2021/08/21 02:53:53;;;;;;;11.98;4.68;;;14.50;99.90;;;;;;5045780;28;20213;-75
2021/08/21 02:56:19;;;;;;;14.45;4.65;;;14.50;99.90;;;;;;5046065;28;20505;-73
2021/08/21 02:58:44;;;;;;;12.15;5.18;;;14.50;99.90;;;;;;5045734;28;20021;-73
2021/08/21 03:01:10;;;;;;;13.38;6.10;;;14.50;99.90;;;;;;5045497;28;20041;-73
2021/08/21 03:03:35;;;;;;;9.48;4.18;;;14.40;99.90;;;;;;5045688;28;20075;-73
2021/08/21 03:06:01;;;;;;;9.48;4.65;;;14.50;99.90;;;;;;5045575;28;20083;-74
2021/08/21 03:08:27;;;;;;;16.88;5.65;;;14.40;99.90;;;;;;5044189;28;20022;-74
2021/08/21 03:10:53;;;;;;;11.20;5.10;;;14.50;99.90;;;;;;5045488;28;20033;-74
2021/08/21 03:13:18;;;;;;;8.90;4.63;;;14.40;99.90;;;;;;5045134;28;20049;-74
2021/08/21 03:15:44;;;;;;;16.65;4.72;;;14.40;99.90;;;;;;5045288;28;20057;-73
2021/08/21 03:18:09;;;;;;;8.35;4.72;;;14.40;99.90;;;;;;5045338;28;20081;-74
2021/08/21 03:20:35;;;;;;;14.40;5.13;;;14.40;99.90;;;;;;5043931;28;20060;-74
2021/08/21 03:23:01;;;;;;;14.88;4.93;;;14.30;99.90;;;;;;5044820;28;20025;-74
2021/08/21 03:25:28;;;;;;;8.45;4.85;;;14.40;99.90;;;;;;5045230;28;20050;-74
2021/08/21 03:27:53;;;;;;;14.75;6.13;;;14.40;99.90;;;;;;5044380;28;20037;-74
2021/08/21 03:30:19;;;;;;;9.73;4.90;;;14.40;99.90;;;;;;5045209;28;20037;-74
2021/08/21 03:32:45;;;;;;;9.18;4.88;;;14.30;99.90;;;;;;5045296;28;20047;-74
2021/08/21 03:35:11;;;;;;;7.15;3.88;;;14.30;99.90;;;;;;5044999;28;20060;-73
2021/08/21 03:37:36;;;;;;;11.95;4.93;;;14.30;99.90;;;;;;5045159;28;20075;-74
2021/08/21 03:40:03;;;;;;;13.18;5.38;;;14.30;99.90;;;;;;5044940;28;20038;-73
2021/08/21 03:42:28;;;;;;;9.32;4.70;;;14.30;99.90;;;;;;5044856;28;20085;-75
2021/08/21 03:44:54;;;;;;;10.18;4.95;;;14.30;99.90;;;;;;5044873;28;20029;-74
2021/08/21 03:47:24;;;;;;;8.00;4.10;;;14.20;99.90;;;;;;5043419;28;20033;-75
2021/08/21 03:49:51;;;;;;;11.18;5.43;;;14.30;99.90;;;;;;5044910;28;20084;-75
2021/08/21 03:52:16;;;;;;;15.60;4.93;;;14.30;99.90;;;;;;5044978;28;20025;-73
2021/08/21 03:54:42;;;;;;;11.13;5.30;;;14.30;99.90;;;;;;5044678;28;20025;-74
2021/08/21 03:57:08;;;;;;;19.35;5.72;;;14.20;99.90;;;;;;5044552;28;20041;-74
2021/08/21 03:59:33;;;;;;;11.48;5.05;;;14.20;99.90;;;;;;5044411;28;20045;-74
2021/08/21 04:01:59;;;;;;;11.10;5.32;;;14.30;99.90;;;;;;5044668;28;20478;-74
2021/08/21 04:04:28;;;;;;;9.88;4.35;;;14.20;99.90;;;;;;5044799;28;20022;-74
2021/08/21 04:06:53;;;;;;;8.85;4.90;;;14.10;99.90;;;;;;5044455;28;20021;-75
2021/08/21 04:09:19;;;;;;;10.20;4.78;;;14.20;99.90;;;;;;5044702;28;20055;-75
2021/08/21 04:11:45;;;;;;;12.63;5.38;;;14.20;99.90;;;;;;5044237;28;20037;-73
2021/08/21 04:14:11;;;;;;;13.88;5.75;;;14.30;99.90;;;;;;5044240;28;20032;-74
2021/08/21 04:16:36;;;;;;;12.10;5.53;;;14.30;99.90;;;;;;5044111;28;20025;-74
2021/08/21 04:19:02;;;;;;;11.82;5.22;;;14.20;99.90;;;;;;5059902;28;20064;-74
2021/08/21 04:21:29;;;;;;;9.73;5.00;;;14.20;99.90;;;;;;5044460;28;20037;-75
2021/08/21 04:23:54;;;;;;;7.82;4.97;;;14.20;99.90;;;;;;5044524;28;20075;-74
2021/08/21 04:26:21;;;;;;;10.63;4.60;;;14.20;99.90;;;;;;5044769;28;20476;-75
2021/08/21 04:28:47;;;;;;;10.30;4.93;;;14.30;99.90;;;;;;5044345;28;20052;-74
2021/08/21 04:31:13;;;;;;;12.68;5.18;;;14.30;99.90;;;;;;5044384;28;20026;-74
2021/08/21 04:33:38;;;;;;;13.70;4.60;;;14.30;99.90;;;;;;5044219;28;20034;-74
2021/08/21 04:36:04;;;;;;;8.23;4.53;;;14.30;99.90;;;;;;5044289;28;20029;-73
2021/08/21 04:38:32;;;;;;;8.77;4.82;;;14.40;99.90;;;;;;5044680;28;20033;-74
2021/08/21 04:40:58;;;;;;;10.05;4.57;;;14.40;99.90;;;;;;5046680;28;20042;-75
2021/08/21 04:43:25;;;;;;;11.48;5.30;;;14.40;99.90;;;;;;5048579;28;20113;-75
2021/08/21 04:45:51;;;;;;;13.68;5.65;;;14.50;99.90;;;;;;5048338;28;20068;-75
2021/08/21 04:48:16;;;;;;;13.90;5.65;;;14.30;99.90;;;;;;5048166;28;20080;-74
2021/08/21 04:50:42;;;;;;;9.45;4.90;;;14.40;99.90;;;;;;5063330;28;20049;-74
2021/08/21 04:53:08;;;;;;;10.57;4.88;;;14.40;99.90;;;;;;5047768;28;20055;-74
2021/08/21 04:55:34;;;;;;;13.98;5.32;;;14.40;99.90;;;;;;5047648;28;20022;-74
2021/08/21 04:58:00;;;;;;;9.27;4.50;;;14.50;99.90;;;;;;5048000;28;20037;-74
2021/08/21 05:00:28;;;;;;;9.25;4.45;;;14.40;99.90;;;;;;5048097;28;20041;-74
2021/08/21 05:02:57;;;;;;;7.43;4.68;;;14.50;99.90;;;;;;5047875;28;20028;-74
2021/08/21 05:05:28;;;;;;;10.50;4.82;;;14.60;99.90;;;;;;5047581;28;20049;-74
2021/08/21 05:07:54;;;;;;;10.88;5.50;;;14.50;99.90;;;;;;5048074;28;20028;-75
2021/08/21 05:10:22;;;;;;;10.68;4.82;;;14.40;99.90;;;;;;5047890;28;20034;-74
2021/08/21 05:12:47;;;;;;;10.23;4.47;;;14.50;99.90;;;;;;5047934;28;20033;-74
2021/08/21 05:15:14;;;;;;;9.48;5.30;;;14.60;99.90;;;;;;5047277;28;20049;-74
2021/08/21 05:17:40;;;;;;;12.52;4.82;;;14.60;99.90;;;;;;5049864;28;20042;-74
2021/08/21 05:20:14;;;;;;;8.75;4.50;;;14.60;99.90;;;;;;5047667;28;20056;-74
2021/08/21 05:25:15;;;;;;;11.23;5.28;;;14.60;99.90;;;;;;5047741;28;19967;-73
2021/08/21 05:27:42;;;;;;;8.73;4.35;;;14.60;99.90;;;;;;5046906;28;20025;-74
2021/08/21 05:30:09;;;;;;;12.20;4.97;;;14.60;99.90;;;;;;5047315;28;20029;-75
2021/08/21 05:32:36;;;;;;;8.10;4.57;;;14.70;99.90;;;;;;5046160;28;20030;-74
2021/08/21 05:35:01;;;;;;;13.82;4.85;;;14.60;99.90;;;;;;5047388;28;20029;-75
2021/08/21 05:37:27;;;;;;;13.18;6.15;;;14.70;99.90;;;;;;5047588;28;20053;-75
2021/08/21 05:39:52;;;;;;;16.73;6.03;;;14.60;99.90;;;;;;5047551;28;20049;-74
2021/08/21 05:42:18;;;;;;;9.60;5.00;;;14.70;99.90;;;;;;5047403;28;20073;-74
2021/08/21 05:44:44;;;;;;;11.95;5.15;;;14.70;99.90;;;;;;5047126;28;20092;-74
2021/08/21 05:47:09;;;;;;;10.02;4.22;;;14.70;99.90;;;;;;5047170;28;20509;-74
2021/08/21 05:49:35;;;;;;;9.48;4.13;;;14.80;99.90;;;;;;5050263;28;20035;-74
2021/08/21 05:52:00;;;;;;;8.00;4.65;;;14.80;99.90;;;;;;5050103;28;20029;-73
2021/08/21 05:54:26;;;;;;;6.68;3.72;;;14.80;99.90;;;;;;5047277;28;20067;-73
2021/08/21 05:56:52;;;;;;;9.68;5.10;;;15.00;99.90;;;;;;5067210;28;20477;-75
2021/08/21 05:59:17;;;;;;;7.97;4.13;;;14.90;99.90;;;;;;5066971;28;20036;-73
2021/08/21 06:01:43;;;;;;;10.25;4.72;;;14.90;99.90;;;;;;5065286;28;20033;-73
2021/08/21 06:04:08;;;;;;;13.70;4.45;;;14.90;99.90;;;;;;5067053;28;20051;-74
2021/08/21 06:06:35;;;;;;;10.75;4.32;;;15.00;99.90;;;;;;5059642;28;20505;-73
2021/08/21 06:09:00;;;;;;;12.90;4.60;;;15.10;99.90;;;;;;5045422;28;20068;-74
2021/08/21 06:11:27;;;;;;;7.63;4.43;;;15.10;99.90;;;;;;5049521;28;20022;-74
2021/08/21 06:13:54;;;;;;;11.70;4.90;;;15.10;99.90;;;;;;5057701;28;20081;-75
2021/08/21 06:16:22;;;;;;;5.93;3.70;;;15.20;99.90;;;;;;5028318;28;20046;-74
2021/08/21 06:18:48;;;;;;;7.28;4.15;;;15.20;99.90;;;;;;5026896;28;20045;-73
2021/08/21 06:21:13;;;;;;;9.88;4.10;;;15.20;99.90;;;;;;5026168;28;20029;-73
2021/08/21 06:23:39;;;;;;;12.05;4.47;;;15.30;99.90;;;;;;5026457;28;20038;-73
2021/08/21 06:26:05;;;;;;;15.05;4.63;;;15.30;99.90;;;;;;5046901;28;20060;-74
2021/08/21 06:28:30;;;;;;;11.75;5.13;;;15.30;99.90;;;;;;5032337;28;20108;-73
2021/08/21 06:31:01;;;;;;;10.10;5.20;;;15.30;99.90;;;;;;5026709;28;20030;-73
2021/08/21 06:33:27;;;;;;;9.75;4.85;;;15.20;99.90;;;;;;5045317;28;20092;-75
2021/08/21 06:35:53;;;;;;;10.05;4.07;;;15.30;99.90;;;;;;5046465;28;20029;-74
2021/08/21 06:38:20;;;;;;;9.18;5.25;;;15.30;99.90;;;;;;5043828;28;20049;-75
2021/08/21 06:40:46;;;;;;;18.45;5.47;;;15.30;99.90;;;;;;5044559;28;20029;-75
2021/08/21 06:43:13;;;;;;;8.98;4.00;;;15.30;99.90;;;;;;5036713;28;20025;-76
2021/08/21 06:45:38;;;;;;;12.13;5.03;;;15.30;99.90;;;;;;5045983;28;20025;-74
2021/08/21 06:48:07;;;;;;;9.30;4.00;;;15.40;99.90;;;;;;5045896;28;20073;-75
2021/08/21 06:50:34;;;;;;;9.77;4.47;;;15.40;99.90;;;;;;5046074;28;20029;-74
2021/08/21 06:53:03;;;;;;;7.60;4.10;;;15.50;99.90;;;;;;5044411;28;20035;-74
2021/08/21 06:55:30;;;;;;;11.05;4.75;;;15.50;99.90;;;;;;5046098;28;20053;-75
2021/08/21 06:57:56;;;;;;;10.25;4.22;;;15.50;99.90;;;;;;5045711;28;20028;-76
2021/08/21 07:00:21;;;;;;;10.95;5.00;;;15.60;99.90;;;;;;5044667;28;20045;-74
2021/08/21 07:02:47;;;;;;;14.02;4.07;;;15.60;99.90;;;;;;5045646;28;20022;-74
2021/08/21 07:05:12;;;;;;;9.60;4.75;;;15.60;99.90;;;;;;5045398;28;20037;-75
2021/08/21 07:07:38;;;;;;;5.95;3.72;;;15.60;99.90;;;;;;5044331;28;20030;-75
2021/08/21 07:10:04;;;;;;;6.88;4.00;;;15.80;99.90;;;;;;5044804;28;20026;-74
2021/08/21 07:12:30;;;;;;;10.25;4.78;;;15.70;99.90;;;;;;5045078;28;20033;-75
2021/08/21 07:14:59;;;;;;;12.80;4.55;;;15.70;99.90;;;;;;5050575;28;20048;-75
2021/08/21 07:17:27;;;;;;;8.52;3.92;;;15.80;99.90;;;;;;5054538;28;20022;-76
2021/08/21 07:19:53;;;;;;;12.68;4.82;;;15.90;99.90;;;;;;5045817;28;20033;-76
2021/08/21 07:22:20;;;;;;;11.05;4.57;;;16.00;99.90;;;;;;5045515;28;20060;-74
2021/08/21 07:24:45;;;;;;;8.95;4.35;;;16.00;99.90;;;;;;5045523;28;20048;-75
2021/08/21 07:27:11;;;;;;;8.50;4.57;;;16.10;99.90;;;;;;5045248;28;20030;-75
2021/08/21 07:29:37;;;;;;;11.50;4.68;;;16.20;99.90;;;;;;5045091;28;20034;-74
2021/08/21 07:32:02;;;;;;;6.75;3.45;;;16.30;99.90;;;;;;5060459;28;20048;-75
2021/08/21 07:34:28;;;;;;;11.38;4.78;;;16.40;99.90;;;;;;5053037;28;20103;-76
2021/08/21 07:36:57;;;;;;;11.55;4.32;;;16.50;99.90;;;;;;5046695;28;20096;-76
2021/08/21 07:39:23;;;;;;;9.02;3.63;;;16.50;99.90;;;;;;5042273;28;20041;-76
2021/08/21 07:41:49;;;;;;;8.38;3.63;;;16.60;99.90;;;;;;5055171;28;20153;-75
2021/08/21 07:44:15;;;;;;;8.05;3.78;;;16.70;99.90;;;;;;5062040;28;20021;-76
2021/08/21 07:46:40;;;;;;;9.30;4.38;;;16.70;99.90;;;;;;5075768;28;20035;-76
2021/08/21 07:49:06;;;;;;;17.50;5.00;;;16.70;99.90;;;;;;5043544;28;20029;-75
2021/08/21 07:51:31;;;;;;;13.70;3.70;;;16.80;99.90;;;;;;5058520;28;20037;-75
2021/08/21 07:53:57;;;;;;;7.72;4.15;;;16.80;99.90;;;;;;5065067;28;20098;-75
2021/08/21 07:56:23;;;;;;;11.07;4.38;;;16.90;99.90;;;;;;5064593;28;20033;-77
2021/08/21 07:58:49;;;;;;;7.82;3.88;;;16.90;99.90;;;;;;5064779;28;20020;-77
2021/08/21 08:01:15;;;;;;;5.68;3.63;;;17.00;99.90;;;;;;5064619;28;20041;-74
2021/08/21 08:03:40;;;;;;;9.73;4.35;;;17.00;99.90;;;;;;5063125;28;20032;-76
2021/08/21 08:06:06;;;;;;;5.45;3.42;;;17.20;99.90;;;;;;5064575;28;20025;-77
2021/08/21 08:08:31;;;;;;;7.78;3.92;;;17.20;99.90;;;;;;5064315;28;20451;-76
2021/08/21 08:10:57;;;;;;;7.18;3.53;;;17.30;99.90;;;;;;5064677;28;20075;-77
2021/08/21 08:13:23;;;;;;;7.15;3.47;;;17.30;99.90;;;;;;5062759;28;20033;-74
2021/08/21 08:15:50;;;;;;;6.15;3.92;;;17.50;99.90;;;;;;5063990;28;20051;-77
2021/08/21 08:18:19;;;;;;;8.00;4.47;;;17.50;99.90;;;;;;5064527;28;20035;-76
2021/08/21 08:20:45;;;;;;;10.93;4.38;;;17.60;99.90;;;;;;5064081;28;20033;-77
2021/08/21 08:23:19;;;;;;;6.25;3.50;;;17.60;99.90;;;;;;5063975;28;20075;-77
2021/08/21 08:25:45;;;;;;;7.60;4.32;;;17.70;99.90;;;;;;5062074;28;20033;-78
2021/08/21 08:28:10;;;;;;;11.00;3.95;;;17.70;99.90;;;;;;5064372;28;20036;-75
2021/08/21 08:30:36;;;;;;;10.77;4.80;;;17.80;99.90;;;;;;5062822;28;20032;-75
2021/08/21 08:33:02;;;;;;;7.25;4.07;;;17.90;99.90;;;;;;5062665;28;20031;-76
2021/08/21 08:35:27;;;;;;;18.33;4.55;;;17.90;99.90;;;;;;5063673;28;20084;-77
2021/08/21 08:37:54;;;;;;;7.15;4.30;;;18.00;99.90;;;;;;5062733;28;20029;-75
2021/08/21 08:40:25;;;;;;;8.05;4.00;;;18.00;99.90;;;;;;5063200;28;20063;-75
2021/08/21 08:42:51;;;;;;;5.45;3.30;;;18.10;99.90;;;;;;5064190;28;20029;-76
2021/08/21 08:45:18;;;;;;;7.60;3.47;;;18.20;99.90;;;;;;5063209;28;20033;-74
2021/08/21 08:47:44;;;;;;;7.80;3.75;;;18.30;99.90;;;;;;5063821;28;20029;-74
2021/08/21 08:50:14;;;;;;;5.72;3.47;;;18.40;99.90;;;;;;5060742;28;20063;-72
2021/08/21 08:52:40;;;;;;;9.00;3.90;;;18.50;99.90;;;;;;5051435;28;20037;-74
2021/08/21 08:55:09;;;;;;;6.88;3.50;;;18.50;99.90;;;;;;5057364;28;20037;-74
2021/08/21 08:57:42;;;;;;;5.00;2.53;;;18.60;99.90;;;;;;5049777;28;20037;-73
2021/08/21 09:00:12;;;;;;;5.80;2.90;;;18.70;99.90;;;;;;5047055;28;20042;-74
2021/08/21 09:02:44;;;;;;;7.88;3.30;;;18.80;99.90;;;;;;5053474;28;20022;-75
2021/08/21 09:05:13;;;;;;;7.78;3.20;;;18.90;99.90;;;;;;5058299;28;20489;-73
2021/08/21 09:07:51;;;;;;;10.93;3.75;;;18.90;99.90;;;;;;5053439;28;20036;-75
2021/08/21 09:10:31;;;;;;;6.13;3.42;;;18.90;99.90;;;;;;5053946;28;20436;-75
2021/08/21 09:13:12;;;;;;;8.15;3.35;;;18.90;99.90;;;;;;5058282;28;20026;-75
2021/08/21 09:15:43;;;;;;;3.80;2.53;;;18.90;99.90;;;;;;5058187;28;20060;-73
2021/08/21 09:18:14;;;;;;;9.50;3.35;;;18.90;99.90;;;;;;5062952;28;20040;-75
2021/08/21 09:20:49;;;;;;;7.10;4.10;;;19.00;99.90;;;;;;5062408;28;20045;-70
2021/08/21 09:23:38;;;;;;;11.00;4.07;;;19.10;99.90;;;;;;5062659;28;20050;-73
2021/08/21 09:26:06;;;;;;;8.80;3.45;;;19.20;99.90;;;;;;5064830;28;20021;-72
2021/08/21 09:28:33;;;;;;;11.60;4.85;;;19.30;99.90;;;;;;5050851;28;20033;-74
2021/08/21 09:31:10;;;;;;;5.82;3.60;;;19.30;99.90;;;;;;5056196;28;20093;-74
2021/08/21 09:33:39;;;;;;;9.85;3.88;;;19.30;99.90;;;;;;5058503;28;20021;-74
2021/08/21 09:36:10;;;;;;;4.70;2.88;;;19.30;99.90;;;;;;5056064;28;20026;-74
2021/08/21 09:38:36;;;;;;;7.28;3.55;;;19.40;99.90;;;;;;5051985;28;20040;-73
2021/08/21 09:41:09;;;;;;;6.30;3.40;;;19.50;99.90;;;;;;5081893;28;20044;-72
2021/08/21 09:43:37;;;;;;;14.52;3.33;;;19.60;99.90;;;;;;5065979;28;20059;-71
2021/08/21 09:46:14;;;;;;;6.25;3.50;;;19.70;99.90;;;;;;5067014;28;20029;-72
2021/08/21 09:48:59;;;;;;;5.88;2.95;;;19.90;99.90;;;;;;5066954;28;20025;-71
2021/08/21 09:51:50;;;;;;;9.23;3.65;;;19.90;99.90;;;;;;5082539;28;20460;-74
2021/08/21 09:54:20;;;;;;;9.98;2.97;;;20.00;99.90;;;;;;5065321;28;20065;-73
2021/08/21 09:56:56;;;;;;;8.75;3.92;;;20.10;99.90;;;;;;5063969;28;20025;-74
2021/08/21 09:59:40;;;;;;;8.23;4.15;;;20.20;99.90;;;;;;5065254;28;20076;-73
2021/08/21 10:02:12;;;;;;;9.13;4.00;;;20.20;99.90;;;;;;5066121;28;20080;-72
2021/08/21 10:04:41;;;;;;;6.45;3.40;;;20.30;99.90;;;;;;5064260;28;20032;-73
2021/08/21 10:07:09;;;;;;;4.97;3.05;;;20.50;99.90;;;;;;5051913;28;20566;-73
2021/08/21 10:09:38;;;;;;;14.60;4.60;;;20.70;99.90;;;;;;5051553;28;20025;-74
2021/08/21 10:12:05;;;;;;;13.52;5.00;;;20.70;99.90;;;;;;5054677;28;20095;-72
2021/08/21 10:14:33;;;;;;;8.80;3.53;;;20.90;99.90;;;;;;5058099;28;20041;-74
2021/08/21 10:17:12;;;;;;;7.15;3.55;;;21.00;99.90;;;;;;5055759;28;20066;-74
2021/08/21 10:19:40;;;;;;;7.03;3.60;;;21.10;99.90;;;;;;5051108;28;20037;-75
2021/08/21 10:22:08;;;;;;;7.63;3.63;;;21.10;99.90;;;;;;5049163;28;20029;-73
2021/08/21 10:24:37;;;;;;;6.57;3.50;;;21.30;99.90;;;;;;5045930;28;20036;-74
2021/08/21 10:27:22;;;;;;;4.20;2.72;;;21.50;99.90;;;;;;5045507;28;20022;-74
2021/08/21 10:30:12;;;;;;;6.18;2.80;;;21.60;99.90;;;;;;5051979;28;20029;-74
2021/08/21 10:32:40;;;;;;;6.45;3.58;;;21.60;99.90;;;;;;5055542;28;20044;-72
2021/08/21 10:35:07;;;;;;;9.77;4.25;;;21.70;99.90;;;;;;5055867;28;20021;-72
2021/08/21 10:37:35;;;;;;;9.10;4.68;;;21.80;99.90;;;;;;5052742;28;20094;-72
2021/08/21 10:40:26;;;;;;;6.00;3.72;;;21.80;99.90;;;;;;5055040;28;20344;-73
2021/08/21 10:42:53;;;;;;;9.23;5.03;;;21.70;99.90;;;;;;5055077;28;20060;-71
2021/08/21 10:45:47;;;;;;;7.22;4.18;;;21.80;99.90;;;;;;5065365;28;20390;-71
2021/08/21 10:48:33;;;;;;;8.63;4.80;;;21.90;99.90;;;;;;5058652;28;20032;-73
2021/08/21 10:51:04;;;;;;;7.97;3.80;;;21.90;99.90;;;;;;5054676;28;20025;-75
2021/08/21 10:53:30;;;;;;;14.93;3.97;;;22.00;99.90;;;;;;5054578;28;20056;-75
2021/08/21 10:56:00;;;;;;;5.68;3.78;;;22.10;99.90;;;;;;5054432;28;20048;-73
2021/08/21 10:58:28;;;;;;;8.23;3.75;;;22.20;99.90;;;;;;5059996;28;20064;-72
2021/08/21 11:01:00;;;;;;;10.13;4.20;;;22.50;99.90;;;;;;5049720;28;20044;-74
2021/08/21 11:03:30;;;;;;;6.93;3.97;;;22.70;99.90;;;;;;5068919;28;20017;-74
2021/08/21 11:06:06;;;;;;;8.57;3.63;;;22.80;99.90;;;;;;5054493;28;20167;-72
2021/08/21 11:08:52;;;;;;;9.80;3.90;;;22.90;99.90;;;;;;5067659;28;20037;-73
2021/08/21 11:11:26;;;;;;;8.73;4.47;;;23.00;99.90;;;;;;5051561;28;20029;-70
2021/08/21 11:14:08;;;;;;;7.93;4.15;;;23.10;99.90;;;;;;5056171;28;20067;-73
2021/08/21 11:19:35;;;;;;;5.95;3.78;;;23.10;99.90;;;;;;5056449;28;20033;-72
2021/08/21 11:22:26;;;;;;;5.07;3.47;;;23.10;99.90;;;;;;5064501;28;20064;-74
2021/08/21 11:24:55;;;;;;;12.52;3.55;;;23.30;99.90;;;;;;5062690;28;20029;-77
2021/08/21 11:27:25;;;;;;;9.15;4.28;;;23.40;99.90;;;;;;5065308;28;20032;-72
2021/08/21 11:30:09;;;;;;;7.30;3.83;;;23.40;99.90;;;;;;5065306;28;20033;-72
2021/08/21 11:32:51;;;;;;;7.60;4.10;;;23.40;99.90;;;;;;5060615;28;20033;-73
2021/08/21 11:35:26;;;;;;;5.88;3.20;;;23.40;99.90;;;;;;5068204;28;20032;-70
2021/08/21 11:38:00;;;;;;;6.50;2.85;;;23.40;99.90;;;;;;5049686;28;20060;-74
2021/08/21 11:40:39;;;;;;;8.45;3.20;;;23.30;99.90;;;;;;5048560;28;20037;-73
2021/08/21 11:43:07;;;;;;;8.10;2.85;;;23.20;99.90;;;;;;5053513;28;20079;-76
2021/08/21 11:45:33;;;;;;;6.63;3.35;;;23.30;99.90;;;;;;5054461;28;20029;-72
2021/08/21 11:47:59;;;;;;;10.65;3.38;;;23.40;99.90;;;;;;5050412;28;20025;-73
2021/08/21 11:50:34;;;;;;;6.10;3.30;;;23.50;99.90;;;;;;5063095;28;20051;-75
2021/08/21 11:53:13;;;;;;;5.28;3.35;;;23.60;99.90;;;;;;5061794;28;20047;-69
2021/08/21 11:55:40;;;;;;;6.28;3.60;;;23.70;99.90;;;;;;5064223;28;20067;-71
2021/08/21 11:58:07;;;;;;;7.85;3.88;;;23.60;99.90;;;;;;5064904;28;20027;-71
2021/08/21 12:00:35;;;;;;;10.38;4.45;;;23.50;99.90;;;;;;5064635;28;20075;-71
2021/08/21 12:03:07;;;;;;;7.53;4.15;;;23.40;99.90;;;;;;5064649;28;20078;-72
2021/08/21 12:05:54;;;;;;;6.70;3.80;;;23.30;99.90;;;;;;5063234;28;20035;-71
2021/08/21 12:08:26;;;;;;;8.48;4.38;;;23.30;99.90;;;;;;5065162;28;20031;-72
2021/08/21 12:11:02;;;;;;;7.20;3.75;;;23.30;99.90;;;;;;5064811;28;20584;-74
2021/08/21 12:13:33;;;;;;;7.60;3.90;;;23.20;99.90;;;;;;5063157;28;20039;-73
2021/08/21 12:16:08;;;;;;;6.60;3.72;;;23.30;99.90;;;;;;5063190;28;20501;-74
2021/08/21 12:18:36;;;;;;;6.90;3.90;;;23.40;99.90;;;;;;5064470;28;20101;-73
2021/08/21 12:21:03;;;;;;;11.00;4.28;;;23.50;99.90;;;;;;5064738;28;20092;-74
2021/08/21 12:23:29;;;;;;;6.50;3.88;;;23.50;99.90;;;;;;5064344;28;20027;-75
2021/08/21 12:25:59;;;;;;;6.43;3.72;;;23.70;99.90;;;;;;5063121;28;20049;-73
2021/08/21 12:28:34;;;;;;;7.97;4.47;;;23.80;99.90;;;;;;5063102;28;20120;-71
2021/08/21 12:31:03;;;;;;;11.55;5.57;;;23.90;99.90;;;;;;5064287;28;20232;-72
2021/08/21 12:33:34;;;;;;;9.45;5.25;;;23.80;99.90;;;;;;5064520;28;20032;-73
2021/08/21 12:36:10;;;;;;;9.25;4.82;;;23.80;99.90;;;;;;5064005;28;20028;-76
2021/08/21 12:38:36;;;;;;;8.32;4.95;;;23.90;99.90;;;;;;5064014;28;20025;-74
2021/08/21 12:41:10;;;;;;;8.70;5.03;;;24.00;99.90;;;;;;5059673;28;20048;-73
2021/08/21 12:43:40;;;;;;;10.10;5.15;;;24.10;99.90;;;;;;5062469;28;20028;-74
2021/08/21 12:46:18;;;;;;;6.20;3.85;;;24.00;99.90;;;;;;5063911;28;20021;-77
2021/08/21 12:48:44;;;;;;;7.90;4.97;;;23.90;99.90;;;;;;5062937;28;20027;-74
2021/08/21 12:51:09;;;;;;;9.15;4.75;;;23.80;99.90;;;;;;5056675;28;20085;-73
2021/08/21 12:53:35;;;;;;;10.48;4.60;;;23.50;99.90;;;;;;5061670;28;20164;-75
2021/08/21 12:56:09;;;;;;;8.13;4.65;;;23.50;99.90;;;;;;5061975;28;20108;-73